createdAt,value
2023-02-18T00:01:56.197Z,64.20
2023-02-18T00:04:25.204Z,68.80
2023-02-18T00:06:53.252Z,63.40
2023-02-18T00:09:23.184Z,67.00
2023-02-18T00:11:51.575Z,73.60
2023-02-18T00:14:20.182Z,68.50
2023-02-18T00:16:49.180Z,71.00
2023-02-18T00:19:18.657Z,63.60
2023-02-18T00:21:48.544Z,68.10
2023-02-18T00:24:17.151Z,72.10
2023-02-18T00:26:46.754Z,70.90
2023-02-18T00:29:14.922Z,68.70
2023-02-18T00:31:46.159Z,75.50
2023-02-18T00:34:15.073Z,68.30
2023-02-18T00:36:43.430Z,71.40
2023-02-18T00:39:12.959Z,71.10
2023-02-18T00:41:42.290Z,67.30
2023-02-18T00:44:11.478Z,71.80
2023-02-18T00:46:39.805Z,73.60
2023-02-18T00:49:09.882Z,75.00
2023-02-18T00:51:38.033Z,68.30
2023-02-18T00:54:06.219Z,70.50
2023-02-18T00:56:34.413Z,70.90
2023-02-18T00:59:02.632Z,73.30
2023-02-18T01:01:31.792Z,71.60
2023-02-18T01:04:00.080Z,72.30
2023-02-18T01:06:28.488Z,68.40
2023-02-18T01:08:56.829Z,71.60
2023-02-18T01:11:25.386Z,67.40
2023-02-18T01:13:53.766Z,68.90
2023-02-18T01:16:23.725Z,68.40
2023-02-18T01:18:51.981Z,65.10
2023-02-18T01:21:20.320Z,68.40
2023-02-18T01:23:49.994Z,61.70
2023-02-18T01:26:18.448Z,68.50
2023-02-18T01:28:48.252Z,66.30
2023-02-18T01:31:16.899Z,67.50
2023-02-18T01:33:46.442Z,66.90
2023-02-18T01:36:15.096Z,71.00
2023-02-18T01:38:43.214Z,62.20
2023-02-18T01:41:11.710Z,66.70
2023-02-18T01:43:40.038Z,54.80
2023-02-18T01:46:21.421Z,57.80
2023-02-18T01:49:00.486Z,46.70
2023-02-18T01:51:32.170Z,53.70
2023-02-18T01:54:27.964Z,55.90
2023-02-18T01:57:33.200Z,56.00
2023-02-18T02:00:14.056Z,48.10
2023-02-18T02:02:49.283Z,49.90
2023-02-18T02:05:18.239Z,47.60
2023-02-18T02:07:47.610Z,46.30
2023-02-18T02:10:16.992Z,45.40
2023-02-18T02:13:12.146Z,49.50
2023-02-18T02:16:03.298Z,46.80
2023-02-18T02:18:49.916Z,46.30
2023-02-18T02:21:40.477Z,45.20
2023-02-18T02:24:42.481Z,46.00
2023-02-18T02:27:16.824Z,44.80
2023-02-18T02:29:50.972Z,41.00
2023-02-18T02:32:51.804Z,46.20
2023-02-18T02:35:23.835Z,44.60
2023-02-18T02:38:07.889Z,45.20
2023-02-18T02:40:47.411Z,44.40
2023-02-18T02:43:32.165Z,42.10
2023-02-18T02:46:08.257Z,40.40
2023-02-18T02:48:46.793Z,41.20
2023-02-18T02:51:40.571Z,44.10
2023-02-18T02:54:14.398Z,40.30
2023-02-18T02:56:42.447Z,41.40
2023-02-18T02:59:21.165Z,40.40
2023-02-18T03:02:18.324Z,44.50
2023-02-18T03:05:08.158Z,46.00
2023-02-18T03:07:46.160Z,39.10
2023-02-18T03:10:52.588Z,47.00
2023-02-18T03:13:39.605Z,47.10
2023-02-18T03:16:14.042Z,44.30
2023-02-18T03:18:48.457Z,46.20
2023-02-18T03:21:42.483Z,45.40
2023-02-18T03:24:15.177Z,45.40
2023-02-18T03:26:49.736Z,49.70
2023-02-18T03:29:18.701Z,46.90
2023-02-18T03:31:55.186Z,46.50
2023-02-18T03:34:33.267Z,48.70
2023-02-18T03:37:05.549Z,43.60
2023-02-18T03:39:36.588Z,45.00
2023-02-18T03:42:05.590Z,40.90
2023-02-18T03:44:36.669Z,43.20
2023-02-18T03:47:04.786Z,44.30
2023-02-18T03:49:34.772Z,36.00
2023-02-18T03:52:02.911Z,39.50
2023-02-18T03:54:31.352Z,31.20
2023-02-18T03:56:59.513Z,36.60
2023-02-18T03:59:27.717Z,38.80
2023-02-18T04:01:56.073Z,37.40
2023-02-18T04:04:25.286Z,31.50
2023-02-18T04:06:53.672Z,32.80
2023-02-18T04:09:23.224Z,33.60
2023-02-18T04:11:51.502Z,35.40
2023-02-18T04:14:19.534Z,31.30
2023-02-18T04:16:51.843Z,27.30
2023-02-18T04:19:20.637Z,29.50
2023-02-18T04:21:49.823Z,32.00
2023-02-18T04:24:18.035Z,28.20
2023-02-18T04:26:46.177Z,27.00
2023-02-18T04:29:14.401Z,29.30
2023-02-18T04:31:42.591Z,26.30
2023-02-18T04:34:10.991Z,25.00
2023-02-18T04:36:39.062Z,27.70
2023-02-18T04:39:07.268Z,27.30
2023-02-18T04:41:35.520Z,25.80
2023-02-18T04:44:03.762Z,27.20
2023-02-18T04:46:32.699Z,28.70
2023-02-18T04:49:01.286Z,24.80
2023-02-18T04:51:29.846Z,26.00
2023-02-18T04:54:01.372Z,23.60
2023-02-18T04:56:29.701Z,24.40
2023-02-18T04:58:57.847Z,24.90
2023-02-18T05:01:26.127Z,22.10
2023-02-18T05:03:54.595Z,24.20
2023-02-18T05:06:22.661Z,22.80
2023-02-18T05:08:50.794Z,21.80
2023-02-18T05:11:18.999Z,22.00
2023-02-18T05:13:47.580Z,19.60
2023-02-18T05:16:16.922Z,19.60
2023-02-18T05:18:46.118Z,19.60
2023-02-18T05:21:14.183Z,21.20
2023-02-18T05:23:42.296Z,17.10
2023-02-18T05:26:10.893Z,22.50
2023-02-18T05:28:43.393Z,19.70
2023-02-18T05:31:11.619Z,20.30
2023-02-18T05:33:41.618Z,19.40
2023-02-18T05:36:09.911Z,20.60
2023-02-18T05:38:38.198Z,18.80
2023-02-18T05:41:06.373Z,17.40
2023-02-18T05:43:54.859Z,18.00
2023-02-18T05:46:23.488Z,19.30
2023-02-18T05:48:52.741Z,19.20
2023-02-18T05:51:20.779Z,19.80
2023-02-18T05:53:48.920Z,20.90
2023-02-18T05:56:17.163Z,18.70
2023-02-18T05:58:45.851Z,18.00
2023-02-18T06:01:14.001Z,17.30
2023-02-18T06:03:42.503Z,17.30
2023-02-18T06:06:10.804Z,16.60
2023-02-18T06:08:39.488Z,15.60
2023-02-18T06:11:07.543Z,15.50
2023-02-18T06:13:35.773Z,16.20
2023-02-18T06:16:04.468Z,15.30
2023-02-18T06:18:36.480Z,16.00
2023-02-18T06:21:05.170Z,14.00
2023-02-18T06:23:33.240Z,15.50
2023-02-18T06:26:01.832Z,14.60
2023-02-18T06:28:30.876Z,16.30
2023-02-18T06:30:59.060Z,14.10
2023-02-18T06:33:27.256Z,11.70
2023-02-18T06:36:00.203Z,11.80
2023-02-18T06:38:28.634Z,11.00
2023-02-18T06:40:56.913Z,11.90
2023-02-18T06:43:25.171Z,10.60
2023-02-18T06:45:53.297Z,12.20
2023-02-18T06:48:21.750Z,7.90
2023-02-18T06:50:50.380Z,8.60
2023-02-18T06:53:20.114Z,7.60
2023-02-18T06:55:49.756Z,9.50
2023-02-18T07:00:29.820Z,6.20
2023-02-18T07:02:58.329Z,6.90
2023-02-18T07:05:26.788Z,8.90
2023-02-18T07:07:55.371Z,8.20
2023-02-18T07:10:23.503Z,7.70
2023-02-18T07:12:55.300Z,7.50
2023-02-18T07:15:24.554Z,7.90
2023-02-18T07:17:52.787Z,7.30
2023-02-18T07:20:39.404Z,5.30
2023-02-18T07:23:07.640Z,5.20
2023-02-18T07:25:37.075Z,8.40
2023-02-18T07:28:05.764Z,7.90
2023-02-18T07:30:34.030Z,6.30
2023-02-18T07:33:04.066Z,5.60
2023-02-18T07:35:33.088Z,4.30
2023-02-18T07:38:03.480Z,4.90
2023-02-18T07:40:31.762Z,4.70
2023-02-18T07:43:00.246Z,7.40
2023-02-18T07:45:28.632Z,3.70
2023-02-18T07:47:56.796Z,2.80
2023-02-18T07:50:25.381Z,4.40
2023-02-18T07:52:53.587Z,5.40
2023-02-18T07:55:22.552Z,4.20
2023-02-18T07:58:02.454Z,4.40
2023-02-18T08:00:30.884Z,9.80
2023-02-18T08:02:59.271Z,9.90
2023-02-18T08:05:27.313Z,8.70
2023-02-18T08:07:55.853Z,6.40
2023-02-18T08:10:24.102Z,6.60
2023-02-18T08:12:52.218Z,6.10
2023-02-18T08:15:20.559Z,4.60
2023-02-18T08:17:49.296Z,5.30
2023-02-18T08:20:17.741Z,5.50
2023-02-18T08:22:45.890Z,5.60
2023-02-18T08:25:28.584Z,5.70
2023-02-18T08:27:57.621Z,5.10
2023-02-18T08:30:26.500Z,5.10
2023-02-18T08:32:54.901Z,5.50
2023-02-18T08:35:23.087Z,6.20
2023-02-18T08:37:53.188Z,7.30
2023-02-18T08:40:22.996Z,4.40
2023-02-18T08:42:51.093Z,6.40
2023-02-18T08:45:19.346Z,9.60
2023-02-18T08:48:19.565Z,4.30
2023-02-18T08:50:36.081Z,6.60
2023-02-18T08:53:04.902Z,6.00
2023-02-18T08:55:38.268Z,6.40
2023-02-18T08:58:07.052Z,7.20
2023-02-18T09:00:36.487Z,4.50
2023-02-18T09:03:05.021Z,6.00
2023-02-18T09:05:35.889Z,4.70
2023-02-18T09:08:05.091Z,6.50
2023-02-18T09:10:33.269Z,6.90
2023-02-18T09:13:01.549Z,5.50
2023-02-18T09:15:32.432Z,6.70
2023-02-18T09:18:03.176Z,5.50
2023-02-18T09:20:31.410Z,6.10
2023-02-18T09:23:00.918Z,8.60
2023-02-18T09:25:29.620Z,7.30
2023-02-18T09:27:57.869Z,8.10
2023-02-18T09:30:26.022Z,6.30
2023-02-18T09:32:54.618Z,6.80
2023-02-18T09:35:22.790Z,8.40
2023-02-18T09:37:50.859Z,8.10
2023-02-18T09:40:29.045Z,5.40
2023-02-18T09:42:57.351Z,8.40
2023-02-18T09:45:26.451Z,8.90
2023-02-18T09:47:54.848Z,8.30
2023-02-18T09:50:30.301Z,4.00
2023-02-18T09:53:01.124Z,6.40
2023-02-18T09:55:30.509Z,6.10
2023-02-18T09:58:07.440Z,7.30
2023-02-18T10:00:38.345Z,6.20
2023-02-18T10:03:23.696Z,10.10
2023-02-18T10:06:03.549Z,8.40
2023-02-18T10:08:37.333Z,4.60
2023-02-18T10:11:31.693Z,6.50
2023-02-18T10:14:01.225Z,8.60
2023-02-18T10:16:30.337Z,9.00
2023-02-18T10:19:19.741Z,6.30
2023-02-18T10:21:47.959Z,5.80
2023-02-18T10:24:30.041Z,7.60
2023-02-18T10:26:59.733Z,7.20
2023-02-18T10:29:28.230Z,8.00
2023-02-18T10:31:59.706Z,6.10
2023-02-18T10:34:49.893Z,7.20
2023-02-18T10:37:36.673Z,8.30
2023-02-18T10:40:18.006Z,5.00
2023-02-18T10:43:17.374Z,11.10
2023-02-18T10:46:01.417Z,6.00
2023-02-18T10:48:36.406Z,8.00
2023-02-18T10:51:20.009Z,9.50
2023-02-18T10:53:49.901Z,7.10
2023-02-18T10:56:40.281Z,3.70
2023-02-18T10:59:19.634Z,5.10
2023-02-18T11:01:57.538Z,7.40
2023-02-18T11:04:28.960Z,7.40
2023-02-18T11:06:57.187Z,6.70
2023-02-18T11:09:39.617Z,5.70
2023-02-18T11:12:18.391Z,5.40
2023-02-18T11:17:39.831Z,6.00
2023-02-18T11:20:29.874Z,5.40
2023-02-18T11:23:20.236Z,6.40
2023-02-18T11:26:00.862Z,5.60
2023-02-18T11:28:42.038Z,7.20
2023-02-18T11:31:12.960Z,6.60
2023-02-18T11:33:43.840Z,4.50
2023-02-18T11:36:29.836Z,5.00
2023-02-18T11:39:04.715Z,6.20
2023-02-18T11:41:37.628Z,8.40
2023-02-18T11:44:07.545Z,6.30
2023-02-18T11:46:35.697Z,6.50
2023-02-18T11:49:34.897Z,8.40
2023-02-18T11:52:20.034Z,6.20
2023-02-18T11:55:19.024Z,6.10
2023-02-18T11:58:10.284Z,9.80
2023-02-18T12:00:53.832Z,6.00
2023-02-18T12:03:39.933Z,5.30
2023-02-18T12:06:14.706Z,11.10
2023-02-18T12:08:59.794Z,6.90
2023-02-18T12:11:32.042Z,4.90
2023-02-18T12:14:04.835Z,5.80
2023-02-18T12:17:02.730Z,5.90
2023-02-18T12:20:00.790Z,5.90
2023-02-18T12:22:46.168Z,6.10
2023-02-18T12:25:39.686Z,6.30
2023-02-18T12:28:33.916Z,4.90
2023-02-18T12:33:37.316Z,5.90
2023-02-18T12:36:10.224Z,5.90
2023-02-18T12:38:56.847Z,7.30
2023-02-18T12:41:50.164Z,8.50
2023-02-18T12:44:33.638Z,8.30
2023-02-18T12:47:14.590Z,10.20
2023-02-18T12:50:02.238Z,10.70
2023-02-18T12:52:33.558Z,8.00
2023-02-18T12:55:20.480Z,28.90
2023-02-18T12:58:11.018Z,7.20
2023-02-18T13:00:58.153Z,8.70
2023-02-18T13:03:47.208Z,6.90
2023-02-18T13:06:18.838Z,6.50
2023-02-18T13:08:59.955Z,9.30
2023-02-18T13:11:31.308Z,8.40
2023-02-18T13:14:08.247Z,5.00
2023-02-18T13:16:36.682Z,7.30
2023-02-18T13:19:22.162Z,7.30
2023-02-18T13:21:52.738Z,6.90
2023-02-18T13:24:33.907Z,2.90
2023-02-18T13:27:26.605Z,5.40
2023-02-18T13:30:24.388Z,7.20
2023-02-18T13:33:14.864Z,5.40
2023-02-18T13:35:52.981Z,7.60
2023-02-18T13:38:40.055Z,13.40
2023-02-18T13:41:08.794Z,8.00
2023-02-18T13:43:37.448Z,5.70
2023-02-18T13:46:22.576Z,8.70
2023-02-18T13:49:01.035Z,9.90
2023-02-18T13:51:39.857Z,10.90
2023-02-18T13:54:17.309Z,7.10
2023-02-18T13:57:07.366Z,6.90
2023-02-18T13:59:53.024Z,7.20
2023-02-18T14:02:21.901Z,8.00
2023-02-18T14:04:58.261Z,6.00
2023-02-18T14:07:29.651Z,6.20
2023-02-18T14:12:42.169Z,7.40
2023-02-18T14:15:19.760Z,7.50
2023-02-18T14:18:09.543Z,8.10
2023-02-18T14:20:39.733Z,6.60
2023-02-18T14:23:20.945Z,8.10
2023-02-18T14:26:07.813Z,9.00
2023-02-18T14:28:36.873Z,5.50
2023-02-18T14:31:17.218Z,6.10
2023-02-18T14:34:00.817Z,6.30
2023-02-18T14:36:51.674Z,7.70
2023-02-18T14:39:36.033Z,7.50
2023-02-18T14:42:27.957Z,10.10
2023-02-18T14:45:09.983Z,8.30
2023-02-18T14:47:58.400Z,6.40
2023-02-18T14:50:26.551Z,11.10
2023-02-18T14:52:57.728Z,11.40
2023-02-18T14:55:30.986Z,8.80
2023-02-18T14:58:01.844Z,7.50
2023-02-18T15:00:37.236Z,7.20
2023-02-18T15:03:16.354Z,7.60
2023-02-18T15:05:46.052Z,11.00
2023-02-18T15:08:18.490Z,8.50
2023-02-18T15:10:59.260Z,10.60
2023-02-18T15:13:35.548Z,9.00
2023-02-18T15:16:05.746Z,9.90
2023-02-18T15:18:37.345Z,9.80
2023-02-18T15:21:07.318Z,8.40
2023-02-18T15:23:37.440Z,7.40
2023-02-18T15:26:05.875Z,9.20
2023-02-18T15:28:41.877Z,8.80
2023-02-18T15:31:14.792Z,8.60
2023-02-18T15:33:44.152Z,10.10
2023-02-18T15:36:14.338Z,8.10
2023-02-18T15:38:44.655Z,7.40
2023-02-18T15:41:16.578Z,8.30
2023-02-18T15:46:45.041Z,9.10
2023-02-18T15:49:19.336Z,10.40
2023-02-18T15:51:47.719Z,10.90
2023-02-18T15:54:18.179Z,9.50
2023-02-18T15:56:47.454Z,9.70
2023-02-18T15:59:20.239Z,10.90
2023-02-18T16:02:03.612Z,8.30
2023-02-18T16:04:33.124Z,11.30
2023-02-18T16:07:18.548Z,7.80
2023-02-18T16:09:46.936Z,9.60
2023-02-18T16:12:31.711Z,8.90
2023-02-18T16:15:00.108Z,8.30
2023-02-18T16:17:30.268Z,8.90
2023-02-18T16:20:16.050Z,8.30
2023-02-18T16:22:52.938Z,8.90
2023-02-18T16:25:26.981Z,11.10
2023-02-18T16:30:47.699Z,9.90
2023-02-18T16:33:16.399Z,7.90
2023-02-18T16:35:50.536Z,11.10
2023-02-18T16:38:21.565Z,12.40
2023-02-18T16:40:50.499Z,6.80
2023-02-18T16:43:27.511Z,9.00
2023-02-18T16:46:19.063Z,9.20
2023-02-18T16:48:49.984Z,8.90
2023-02-18T16:51:25.573Z,7.40
2023-02-18T16:53:53.604Z,9.20
2023-02-18T16:56:25.007Z,10.50
2023-02-18T16:58:53.257Z,8.90
2023-02-18T17:01:30.269Z,12.90
2023-02-18T17:03:59.574Z,12.70
2023-02-18T17:06:28.514Z,8.40
2023-02-18T17:08:59.663Z,10.90
2023-02-18T17:11:33.081Z,9.80
2023-02-18T17:14:06.103Z,7.20
2023-02-18T17:16:34.492Z,8.10
2023-02-18T17:19:02.579Z,7.80
2023-02-18T17:21:30.716Z,11.50
2023-02-18T17:23:59.183Z,9.60
2023-02-18T17:26:29.029Z,10.80
2023-02-18T17:28:59.267Z,10.00
2023-02-18T17:31:29.159Z,8.30
2023-02-18T17:33:59.775Z,12.90
2023-02-18T17:36:27.733Z,13.40
2023-02-18T17:38:55.813Z,10.60
2023-02-18T17:41:23.794Z,12.30
2023-02-18T17:43:53.193Z,10.10
2023-02-18T17:46:22.182Z,9.90
2023-02-18T17:48:50.391Z,11.70
2023-02-18T17:51:26.190Z,12.50
2023-02-18T17:53:54.417Z,10.00
2023-02-18T17:56:22.880Z,9.30
2023-02-18T17:58:50.947Z,6.10
2023-02-18T18:01:21.252Z,10.30
2023-02-18T18:03:49.399Z,9.40
2023-02-18T18:06:18.628Z,8.80
2023-02-18T18:08:50.584Z,8.60
2023-02-18T18:11:23.341Z,12.20
2023-02-18T18:13:53.028Z,8.90
2023-02-18T18:16:21.209Z,12.00
2023-02-18T18:18:49.294Z,9.00
2023-02-18T18:21:34.628Z,9.90
2023-02-18T18:24:02.811Z,10.00
2023-02-18T18:26:30.906Z,7.20
2023-02-18T18:28:59.064Z,12.20
2023-02-18T18:31:27.127Z,8.20
2023-02-18T18:33:56.652Z,9.20
2023-02-18T18:36:24.917Z,10.00
2023-02-18T18:38:53.057Z,11.70
2023-02-18T18:41:21.953Z,11.50
2023-02-18T18:43:50.428Z,11.30
2023-02-18T18:46:18.799Z,12.40
2023-02-18T18:48:47.569Z,13.60
2023-02-18T18:51:16.723Z,10.10
2023-02-18T18:53:47.322Z,10.80
2023-02-18T18:56:15.791Z,11.30
2023-02-18T18:58:43.764Z,8.80
2023-02-18T19:01:17.122Z,11.20
2023-02-18T19:03:46.079Z,12.50
2023-02-18T19:06:16.051Z,10.40
2023-02-18T19:08:45.310Z,14.70
2023-02-18T19:11:16.454Z,18.20
2023-02-18T19:13:45.906Z,9.70
2023-02-18T19:18:46.696Z,8.20
2023-02-18T19:21:13.961Z,10.00
2023-02-18T19:23:42.433Z,10.50
2023-02-18T19:26:10.019Z,10.30
2023-02-18T19:28:37.242Z,13.10
2023-02-18T19:31:09.342Z,8.40
2023-02-18T19:33:38.516Z,9.10
2023-02-18T19:36:09.312Z,6.90
2023-02-18T19:38:39.071Z,13.10
2023-02-18T19:41:11.739Z,12.30
2023-02-18T19:43:39.520Z,13.40
2023-02-18T19:46:14.806Z,10.30
2023-02-18T19:48:42.126Z,12.00
2023-02-18T19:51:09.532Z,10.40
2023-02-18T19:53:41.093Z,11.30
2023-02-18T19:56:09.918Z,14.60
2023-02-18T19:58:44.500Z,12.40
2023-02-18T20:01:17.809Z,17.20
2023-02-18T20:03:59.621Z,14.20
2023-02-18T20:06:37.795Z,14.90
2023-02-18T20:09:08.172Z,14.90
2023-02-18T20:11:35.466Z,13.90
2023-02-18T20:14:03.767Z,14.60
2023-02-18T20:16:30.658Z,16.70
2023-02-18T20:18:59.333Z,17.00
2023-02-18T20:21:27.598Z,16.50
2023-02-18T20:23:54.660Z,13.70
2023-02-18T20:26:21.783Z,15.30
2023-02-18T20:28:48.762Z,11.80
2023-02-18T20:31:16.064Z,12.80
2023-02-18T20:33:43.379Z,15.40
2023-02-18T20:36:10.470Z,12.10
2023-02-18T20:38:37.468Z,11.30
2023-02-18T20:41:05.842Z,9.00
2023-02-18T20:43:36.998Z,12.60
2023-02-18T20:46:06.707Z,12.90
2023-02-18T20:48:34.822Z,15.50
2023-02-18T20:51:13.506Z,10.20
2023-02-18T20:53:41.169Z,11.20
2023-02-18T20:56:08.635Z,9.50
2023-02-18T20:58:36.364Z,9.50
2023-02-18T21:01:09.038Z,12.30
2023-02-18T21:03:36.743Z,11.50
2023-02-18T21:06:08.188Z,13.90
2023-02-18T21:08:40.661Z,12.50
2023-02-18T21:11:11.453Z,15.40
2023-02-18T21:13:39.551Z,12.40
2023-02-18T21:16:07.405Z,12.70
2023-02-18T21:18:35.775Z,12.10
2023-02-18T21:21:05.023Z,9.80
2023-02-18T21:23:32.892Z,14.80
2023-02-18T21:26:08.373Z,14.60
2023-02-18T21:28:35.109Z,14.00
2023-02-18T21:31:26.609Z,8.10
2023-02-18T21:33:53.646Z,11.60
2023-02-18T21:36:20.601Z,13.50
2023-02-18T21:38:54.708Z,9.20
2023-02-18T21:41:21.856Z,12.60
2023-02-18T21:43:48.805Z,12.00
2023-02-18T21:46:17.407Z,16.40
2023-02-18T21:49:05.182Z,9.70
2023-02-18T21:51:50.725Z,14.50
2023-02-18T21:54:19.601Z,11.60
2023-02-18T21:56:47.055Z,11.40
2023-02-18T21:59:14.592Z,11.30
2023-02-18T22:01:41.692Z,9.30
2023-02-18T22:04:08.517Z,13.40
2023-02-18T22:06:35.255Z,9.30
2023-02-18T22:09:03.813Z,12.20
2023-02-18T22:11:31.324Z,11.90
2023-02-18T22:13:59.516Z,12.70
2023-02-18T22:16:27.643Z,10.70
2023-02-18T22:18:59.828Z,10.20
2023-02-18T22:21:27.224Z,9.50
2023-02-18T22:23:54.073Z,8.00
2023-02-18T22:26:21.084Z,13.30
2023-02-18T22:28:54.719Z,10.50
2023-02-18T22:31:21.989Z,12.70
2023-02-18T22:33:51.565Z,11.30
2023-02-18T22:36:19.467Z,10.10
2023-02-18T22:38:46.554Z,7.90
2023-02-18T22:41:16.607Z,11.50
2023-02-18T22:43:43.446Z,10.40
2023-02-18T22:46:12.374Z,11.10
2023-02-18T22:48:39.373Z,14.40
2023-02-18T22:51:12.785Z,6.80
2023-02-18T22:53:41.107Z,7.50
2023-02-18T22:56:13.276Z,8.50
2023-02-18T22:58:40.960Z,10.50
2023-02-18T23:01:08.780Z,12.70
2023-02-18T23:03:39.713Z,9.50
2023-02-18T23:06:06.692Z,11.80
2023-02-18T23:08:37.508Z,8.90
2023-02-18T23:11:06.192Z,8.80
2023-02-18T23:13:33.021Z,10.30
2023-02-18T23:16:04.071Z,10.70
2023-02-18T23:18:31.619Z,13.20
2023-02-18T23:21:19.801Z,6.30
2023-02-18T23:23:51.430Z,8.50
2023-02-18T23:26:20.179Z,7.90
2023-02-18T23:28:46.993Z,9.80
2023-02-18T23:31:27.325Z,8.30
2023-02-18T23:33:55.997Z,9.00
2023-02-18T23:36:24.450Z,11.10
2023-02-18T23:38:52.644Z,11.00
2023-02-18T23:41:19.786Z,8.90
2023-02-18T23:43:46.761Z,9.70
2023-02-18T23:46:14.379Z,11.20
2023-02-18T23:48:41.184Z,9.50
2023-02-18T23:51:09.813Z,9.80
2023-02-18T23:53:37.723Z,10.00
2023-02-18T23:56:10.433Z,10.70
2023-02-18T23:58:37.224Z,9.80
